createdAt,value
2018-07-08T00:01:03.884Z,36.00
2018-07-08T00:03:35.611Z,36.00
2018-07-08T00:06:07.706Z,36.00
2018-07-08T00:08:39.487Z,35.90
2018-07-08T00:11:11.567Z,35.90
2018-07-08T00:13:43.403Z,35.90
2018-07-08T00:16:15.617Z,35.90
2018-07-08T00:18:47.346Z,35.90
2018-07-08T00:21:19.922Z,35.90
2018-07-08T00:23:52.162Z,35.90
2018-07-08T00:26:24.154Z,35.90
2018-07-08T00:28:56.467Z,35.80
2018-07-08T00:31:28.911Z,35.80
2018-07-08T00:34:00.919Z,35.80
2018-07-08T00:36:33.006Z,35.80
2018-07-08T00:39:05.564Z,35.70
2018-07-08T00:41:38.166Z,35.80
2018-07-08T00:44:09.866Z,35.70
2018-07-08T00:46:42.124Z,35.80
2018-07-08T00:49:13.957Z,35.70
2018-07-08T00:51:45.954Z,35.70
2018-07-08T00:54:17.864Z,35.70
2018-07-08T00:56:50.006Z,35.70
2018-07-08T00:59:21.791Z,35.60
2018-07-08T01:01:54.034Z,35.60
2018-07-08T01:04:26.115Z,35.60
2018-07-08T01:06:58.114Z,35.60
2018-07-08T01:09:30.046Z,35.60
2018-07-08T01:12:02.151Z,35.60
2018-07-08T01:14:33.789Z,35.60
2018-07-08T01:17:05.978Z,35.50
2018-07-08T01:19:37.926Z,35.50
2018-07-08T01:22:10.038Z,35.50
2018-07-08T01:24:41.845Z,35.50
2018-07-08T01:27:13.897Z,35.50
2018-07-08T01:29:45.918Z,35.50
2018-07-08T01:32:18.074Z,35.50
2018-07-08T01:34:50.089Z,35.50
2018-07-08T01:37:22.886Z,35.50
2018-07-08T01:39:54.757Z,35.40
2018-07-08T01:42:26.682Z,35.40
2018-07-08T01:44:58.815Z,35.40
2018-07-08T01:47:30.831Z,35.40
2018-07-08T01:50:02.790Z,35.40
2018-07-08T01:52:35.032Z,35.40
2018-07-08T01:55:07.004Z,35.40
2018-07-08T01:57:40.308Z,35.40
2018-07-08T02:00:12.009Z,35.40
2018-07-08T02:02:44.366Z,35.40
2018-07-08T02:05:16.106Z,35.50
2018-07-08T02:07:48.300Z,35.50
2018-07-08T02:10:20.073Z,35.50
2018-07-08T02:12:52.462Z,35.60
2018-07-08T02:15:24.835Z,35.60
2018-07-08T02:17:56.731Z,35.60
2018-07-08T02:20:28.443Z,35.60
2018-07-08T02:23:00.824Z,35.60
2018-07-08T02:25:32.674Z,35.70
2018-07-08T02:28:05.243Z,35.70
2018-07-08T02:30:37.972Z,35.70
2018-07-08T02:33:10.999Z,35.70
2018-07-08T02:35:42.967Z,35.70
2018-07-08T02:38:15.524Z,35.80
2018-07-08T02:40:47.412Z,35.80
2018-07-08T02:43:19.396Z,35.90
2018-07-08T02:45:52.528Z,36.00
2018-07-08T02:48:26.498Z,36.00
2018-07-08T02:50:58.635Z,36.00
2018-07-08T02:53:30.861Z,36.10
2018-07-08T02:56:02.663Z,36.10
2018-07-08T03:01:06.330Z,36.30
2018-07-08T03:03:38.210Z,36.40
2018-07-08T03:06:10.038Z,36.40
2018-07-08T03:08:42.125Z,36.50
2018-07-08T03:11:14.016Z,36.70
2018-07-08T03:13:46.667Z,36.70
2018-07-08T03:16:18.626Z,36.80
2018-07-08T03:18:51.185Z,36.90
2018-07-08T03:21:22.955Z,37.10
2018-07-08T03:23:54.831Z,37.10
2018-07-08T03:26:26.855Z,37.20
2018-07-08T03:28:59.899Z,37.30
2018-07-08T03:31:31.786Z,37.40
2018-07-08T03:34:03.535Z,37.50
2018-07-08T03:36:35.341Z,37.70
2018-07-08T03:39:12.569Z,37.80
2018-07-08T03:41:44.739Z,37.80
2018-07-08T03:44:16.557Z,38.00
2018-07-08T03:46:51.439Z,38.00
2018-07-08T03:49:23.953Z,38.20
2018-07-08T03:51:55.885Z,38.30
2018-07-08T03:54:29.826Z,38.40
2018-07-08T03:57:01.695Z,38.50
2018-07-08T03:59:34.811Z,38.60
2018-07-08T04:02:06.938Z,38.70
2018-07-08T04:04:39.301Z,38.80
2018-07-08T04:09:43.314Z,39.00
2018-07-08T04:12:15.639Z,39.00
2018-07-08T04:14:47.686Z,39.20
2018-07-08T04:17:19.846Z,39.40
2018-07-08T04:22:23.460Z,39.70
2018-07-08T04:24:55.826Z,39.90
2018-07-08T04:27:27.726Z,39.90
2018-07-08T04:30:00.253Z,40.10
2018-07-08T04:32:32.403Z,40.30
2018-07-08T04:35:04.794Z,40.40
2018-07-08T04:37:36.838Z,40.80
2018-07-08T04:40:09.031Z,40.90
2018-07-08T04:42:40.931Z,41.00
2018-07-08T04:45:13.103Z,41.10
2018-07-08T04:47:45.010Z,41.30
2018-07-08T04:50:17.178Z,41.40
2018-07-08T04:52:49.155Z,41.40
2018-07-08T04:55:21.632Z,42.00
2018-07-08T04:57:53.593Z,42.70
2018-07-08T05:00:27.350Z,43.10
2018-07-08T05:02:59.380Z,43.60
2018-07-08T05:05:31.982Z,43.60
2018-07-08T05:08:04.030Z,44.20
2018-07-08T05:10:36.103Z,44.20
2018-07-08T05:15:39.262Z,43.70
2018-07-08T05:18:11.071Z,43.80
2018-07-08T05:20:43.223Z,43.70
2018-07-08T05:23:15.022Z,43.80
2018-07-08T05:25:47.284Z,44.10
2018-07-08T05:28:19.503Z,45.00
2018-07-08T05:30:51.864Z,45.40
2018-07-08T05:33:23.709Z,45.60
2018-07-08T05:35:56.102Z,45.90
2018-07-08T05:38:27.863Z,46.50
2018-07-08T05:41:00.271Z,46.30
2018-07-08T05:43:32.480Z,46.50
2018-07-08T05:46:04.798Z,46.80
2018-07-08T05:48:36.588Z,46.60
2018-07-08T05:51:08.919Z,46.50
2018-07-08T05:56:12.356Z,46.10
2018-07-08T05:58:44.288Z,46.10
2018-07-08T06:01:17.054Z,46.00
2018-07-08T06:03:48.677Z,46.10
2018-07-08T06:08:51.873Z,45.70
2018-07-08T06:11:23.710Z,46.40
2018-07-08T06:13:55.625Z,46.90
2018-07-08T06:16:27.783Z,47.20
2018-07-08T06:18:59.814Z,47.80
2018-07-08T06:21:31.907Z,48.10
2018-07-08T06:24:03.769Z,48.10
2018-07-08T06:26:36.027Z,48.30
2018-07-08T06:29:07.942Z,48.70
2018-07-08T06:31:40.346Z,48.80
2018-07-08T06:36:43.363Z,48.70
2018-07-08T06:39:15.240Z,48.50
2018-07-08T06:41:47.383Z,48.10
2018-07-08T06:44:19.391Z,47.80
2018-07-08T06:46:51.984Z,47.60
2018-07-08T06:49:23.630Z,47.70
2018-07-08T06:51:56.273Z,47.80
2018-07-08T06:54:28.202Z,47.60
2018-07-08T06:57:00.308Z,47.60
2018-07-08T06:59:32.081Z,47.40
2018-07-08T07:02:05.791Z,47.30
2018-07-08T07:04:37.910Z,47.30
2018-07-08T07:07:09.923Z,47.30
2018-07-08T07:09:41.743Z,47.30
2018-07-08T07:12:13.902Z,47.40
2018-07-08T07:14:50.338Z,47.50
2018-07-08T07:17:22.951Z,47.70
2018-07-08T07:19:54.973Z,48.20
2018-07-08T07:24:57.740Z,49.10
2018-07-08T07:27:29.703Z,49.30
2018-07-08T07:30:01.572Z,49.60
2018-07-08T07:32:34.142Z,49.70
2018-07-08T07:35:05.994Z,49.80
2018-07-08T07:37:38.196Z,50.20
2018-07-08T07:40:10.378Z,50.30
2018-07-08T07:42:42.692Z,49.60
2018-07-08T07:45:14.748Z,49.30
2018-07-08T07:50:17.642Z,48.50
2018-07-08T07:52:49.514Z,48.00
2018-07-08T07:55:21.375Z,47.60
2018-07-08T07:57:53.492Z,47.20
2018-07-08T08:00:25.287Z,47.00
2018-07-08T08:02:59.151Z,47.00
2018-07-08T08:05:31.209Z,47.00
2018-07-08T08:08:03.401Z,46.80
2018-07-08T08:10:35.191Z,46.80
2018-07-08T08:13:08.157Z,46.80
2018-07-08T08:15:40.433Z,46.60
2018-07-08T08:18:12.410Z,46.80
2018-07-08T08:20:43.870Z,46.70
2018-07-08T08:23:15.891Z,46.50
2018-07-08T08:28:18.795Z,46.40
2018-07-08T08:30:52.314Z,46.50
2018-07-08T08:35:59.511Z,46.10
2018-07-08T08:38:31.866Z,46.00
2018-07-08T08:41:03.546Z,46.00
2018-07-08T08:43:36.078Z,46.10
2018-07-08T08:46:07.947Z,46.00
2018-07-08T08:48:39.910Z,45.80
2018-07-08T08:51:11.951Z,45.80
2018-07-08T08:53:44.056Z,45.70
2018-07-08T08:56:16.086Z,45.60
2018-07-08T08:58:48.171Z,45.70
2018-07-08T09:01:20.696Z,45.60
2018-07-08T09:03:53.984Z,45.70
2018-07-08T09:06:25.926Z,45.60
2018-07-08T09:08:58.114Z,45.70
2018-07-08T09:11:30.024Z,45.80
2018-07-08T09:16:33.112Z,45.80
2018-07-08T09:19:05.188Z,45.80
2018-07-08T09:21:37.032Z,45.80
2018-07-08T09:24:09.165Z,45.80
2018-07-08T09:26:41.010Z,45.80
2018-07-08T09:29:13.135Z,45.80
2018-07-08T09:31:45.111Z,45.80
2018-07-08T09:34:17.231Z,45.70
2018-07-08T09:36:49.126Z,45.70
2018-07-08T09:39:21.087Z,45.70
2018-07-08T09:41:52.906Z,45.50
2018-07-08T09:44:24.807Z,45.40
2018-07-08T09:46:56.526Z,45.30
2018-07-08T09:49:28.616Z,45.50
2018-07-08T09:52:00.526Z,45.40
2018-07-08T09:54:32.754Z,45.40
2018-07-08T09:57:04.618Z,45.30
2018-07-08T10:02:07.406Z,45.20
2018-07-08T10:04:41.070Z,44.90
2018-07-08T10:07:13.010Z,44.60
2018-07-08T10:09:45.092Z,44.50
2018-07-08T10:12:17.038Z,44.50
2018-07-08T10:14:49.148Z,44.20
2018-07-08T10:17:21.497Z,44.30
2018-07-08T10:19:53.924Z,44.20
2018-07-08T10:22:30.171Z,43.90
2018-07-08T10:25:02.513Z,43.90
2018-07-08T10:30:25.793Z,43.60
2018-07-08T10:32:57.908Z,43.60
2018-07-08T10:35:39.668Z,43.50
2018-07-08T10:38:12.354Z,43.30
2018-07-08T10:40:44.906Z,43.20
2018-07-08T10:43:17.395Z,43.40
2018-07-08T10:48:20.586Z,43.10
2018-07-08T10:53:24.408Z,42.70
2018-07-08T10:55:56.639Z,42.90
2018-07-08T10:58:28.337Z,42.70
2018-07-08T11:01:01.756Z,42.80
2018-07-08T11:03:34.435Z,42.90
2018-07-08T11:06:08.264Z,42.60
2018-07-08T11:08:40.208Z,42.60
2018-07-08T11:11:12.374Z,42.60
2018-07-08T11:13:44.157Z,42.40
2018-07-08T11:16:16.031Z,42.40
2018-07-08T11:18:48.142Z,42.50
2018-07-08T11:21:20.293Z,42.60
2018-07-08T11:23:54.201Z,42.70
2018-07-08T11:26:28.212Z,42.70
2018-07-08T11:29:00.723Z,42.50
2018-07-08T11:31:32.935Z,42.50
2018-07-08T11:34:05.038Z,42.40
2018-07-08T11:36:37.214Z,42.30
2018-07-08T11:39:09.515Z,42.30
2018-07-08T11:41:42.150Z,42.20
2018-07-08T11:44:19.618Z,42.10
2018-07-08T11:46:52.321Z,42.10
2018-07-08T11:49:28.303Z,42.20
2018-07-08T11:52:00.447Z,42.10
2018-07-08T11:54:32.476Z,42.10
2018-07-08T11:57:04.675Z,42.10
2018-07-08T11:59:36.593Z,42.20
2018-07-08T12:02:08.932Z,42.00
2018-07-08T12:04:44.886Z,41.90
2018-07-08T12:07:18.450Z,42.00
2018-07-08T12:09:56.848Z,41.90
2018-07-08T12:12:32.056Z,41.90
2018-07-08T12:15:04.662Z,41.90
2018-07-08T12:17:36.918Z,41.80
2018-07-08T12:20:08.861Z,41.70
2018-07-08T12:22:41.162Z,41.90
2018-07-08T12:25:13.046Z,41.80
2018-07-08T12:27:45.355Z,41.90
2018-07-08T12:30:17.518Z,41.50
2018-07-08T12:32:49.708Z,41.60
2018-07-08T12:35:22.390Z,41.60
2018-07-08T12:37:54.292Z,41.50
2018-07-08T12:40:26.335Z,41.40
2018-07-08T12:42:59.046Z,41.50
2018-07-08T12:45:30.847Z,41.40
2018-07-08T12:48:02.996Z,41.30
2018-07-08T12:50:34.766Z,41.20
2018-07-08T12:53:08.100Z,41.10
2018-07-08T12:55:39.993Z,41.10
2018-07-08T12:58:12.168Z,41.00
2018-07-08T13:00:48.539Z,41.00
2018-07-08T13:03:24.845Z,41.00
2018-07-08T13:05:57.755Z,41.10
2018-07-08T13:08:37.793Z,41.00
2018-07-08T13:11:10.510Z,41.00
2018-07-08T13:13:43.279Z,40.70
2018-07-08T13:16:15.190Z,40.80
2018-07-08T13:18:47.241Z,40.60
2018-07-08T13:21:19.150Z,40.50
2018-07-08T13:23:51.435Z,40.50
2018-07-08T13:26:23.320Z,40.60
2018-07-08T13:28:55.572Z,40.60
2018-07-08T13:31:27.326Z,40.60
2018-07-08T13:33:59.767Z,40.50
2018-07-08T13:36:31.792Z,40.40
2018-07-08T13:39:05.718Z,40.60
2018-07-08T13:41:37.772Z,40.40
2018-07-08T13:44:10.113Z,40.30
2018-07-08T13:46:41.863Z,40.30
2018-07-08T13:49:13.784Z,40.20
2018-07-08T13:51:45.763Z,40.30
2018-07-08T13:54:17.894Z,40.20
2018-07-08T13:56:49.974Z,40.30
2018-07-08T13:59:22.352Z,40.30
2018-07-08T14:01:54.542Z,40.20
2018-07-08T14:04:28.447Z,40.30
2018-07-08T14:07:00.304Z,40.30
2018-07-08T14:09:33.737Z,40.20
2018-07-08T14:12:05.629Z,40.10
2018-07-08T14:14:38.036Z,40.00
2018-07-08T14:17:09.964Z,39.90
2018-07-08T14:19:42.579Z,39.90
2018-07-08T14:22:14.507Z,39.80
2018-07-08T14:24:46.817Z,39.60
2018-07-08T14:29:49.879Z,39.60
2018-07-08T14:34:53.037Z,39.50
2018-07-08T14:37:24.914Z,39.50
2018-07-08T14:39:56.928Z,39.30
2018-07-08T14:42:28.677Z,39.30
2018-07-08T14:45:00.631Z,39.20
2018-07-08T14:47:32.667Z,39.20
2018-07-08T14:50:08.253Z,39.20
2018-07-08T14:52:55.044Z,39.20
2018-07-08T14:55:32.986Z,39.10
2018-07-08T15:00:42.514Z,39.10
2018-07-08T15:03:14.767Z,39.10
2018-07-08T15:05:46.815Z,39.10
2018-07-08T15:08:23.598Z,39.00
2018-07-08T15:10:57.186Z,38.90
2018-07-08T15:13:29.114Z,39.00
2018-07-08T15:16:01.315Z,39.00
2018-07-08T15:18:33.351Z,38.90
2018-07-08T15:21:05.494Z,38.90
2018-07-08T15:23:37.307Z,38.90
2018-07-08T15:26:09.430Z,38.80
2018-07-08T15:28:41.331Z,38.80
2018-07-08T15:31:13.994Z,38.70
2018-07-08T15:33:45.802Z,38.70
2018-07-08T15:36:18.090Z,38.80
2018-07-08T15:38:50.311Z,38.60
2018-07-08T15:41:25.434Z,38.60
2018-07-08T15:43:57.306Z,38.60
2018-07-08T15:46:29.627Z,38.60
2018-07-08T15:49:02.969Z,38.50
2018-07-08T15:51:35.023Z,38.50
2018-07-08T15:54:07.527Z,38.40
2018-07-08T15:56:40.314Z,38.40
2018-07-08T15:59:12.162Z,38.30
2018-07-08T16:01:44.478Z,38.30
2018-07-08T16:04:16.282Z,38.30
2018-07-08T16:06:48.255Z,38.20
2018-07-08T16:09:20.148Z,38.20
2018-07-08T16:11:53.259Z,38.30
2018-07-08T16:14:25.271Z,38.30
2018-07-08T16:16:57.407Z,38.20
2018-07-08T16:19:29.227Z,38.10
2018-07-08T16:22:01.191Z,38.10
2018-07-08T16:24:33.333Z,38.10
2018-07-08T16:27:05.272Z,37.90
2018-07-08T16:29:37.119Z,38.00
2018-07-08T16:37:10.798Z,38.00
2018-07-08T16:42:14.223Z,38.00
2018-07-08T16:44:46.186Z,37.90
2018-07-08T16:47:18.303Z,37.90
2018-07-08T16:52:21.486Z,37.70
2018-07-08T16:54:53.175Z,37.80
2018-07-08T16:57:25.480Z,37.80
2018-07-08T16:59:57.601Z,37.70
2018-07-08T17:02:29.533Z,37.70
2018-07-08T17:05:02.450Z,37.70
2018-07-08T17:10:05.760Z,37.50
2018-07-08T17:12:39.273Z,37.60
2018-07-08T17:15:11.303Z,37.50
2018-07-08T17:17:43.894Z,37.50
2018-07-08T17:20:15.800Z,37.50
2018-07-08T17:22:48.019Z,37.50
2018-07-08T17:25:20.316Z,37.50
2018-07-08T17:27:53.153Z,37.50
2018-07-08T17:30:25.039Z,37.50
2018-07-08T17:32:57.088Z,37.50
2018-07-08T17:35:29.297Z,37.40
2018-07-08T17:38:01.198Z,37.40
2018-07-08T17:40:32.982Z,37.40
2018-07-08T17:43:05.939Z,37.40
2018-07-08T17:45:37.666Z,37.30
2018-07-08T17:48:10.172Z,37.30
2018-07-08T17:50:42.140Z,37.30
2018-07-08T17:53:14.214Z,37.20
2018-07-08T17:55:56.714Z,37.30
2018-07-08T17:58:28.717Z,37.20
2018-07-08T18:01:00.399Z,37.10
2018-07-08T18:03:32.307Z,37.10
2018-07-08T18:06:04.275Z,37.00
2018-07-08T18:08:37.032Z,37.00
2018-07-08T18:13:41.003Z,36.90
2018-07-08T18:16:12.803Z,36.90
2018-07-08T18:18:44.986Z,36.90
2018-07-08T18:23:48.190Z,36.80
2018-07-08T18:26:19.910Z,36.80
2018-07-08T18:28:51.953Z,36.70
2018-07-08T18:33:54.946Z,36.60
2018-07-08T18:36:27.321Z,36.60
2018-07-08T18:38:59.487Z,36.60
2018-07-08T18:44:02.554Z,36.50
2018-07-08T18:46:34.656Z,36.50
2018-07-08T18:49:06.821Z,36.40
2018-07-08T18:51:39.035Z,36.40
2018-07-08T18:54:11.368Z,36.30
2018-07-08T18:56:44.060Z,36.30
2018-07-08T18:59:16.840Z,36.30
2018-07-08T19:01:48.702Z,36.30
2018-07-08T19:04:20.671Z,36.20
2018-07-08T19:06:52.643Z,36.20
2018-07-08T19:09:24.815Z,36.30
2018-07-08T19:11:56.674Z,36.20
2018-07-08T19:14:29.986Z,36.30
2018-07-08T19:17:01.767Z,36.30
2018-07-08T19:19:33.683Z,36.30
2018-07-08T19:22:05.354Z,36.20
2018-07-08T19:24:38.899Z,36.20
2018-07-08T19:27:12.899Z,36.30
2018-07-08T19:29:45.004Z,36.30
2018-07-08T19:32:16.858Z,36.30
2018-07-08T19:37:19.729Z,36.30
2018-07-08T19:39:51.645Z,36.40
2018-07-08T19:42:23.517Z,36.40
2018-07-08T19:47:27.195Z,36.30
2018-07-08T19:49:59.702Z,36.40
2018-07-08T19:55:03.030Z,36.40
2018-07-08T19:57:34.915Z,36.30
2018-07-08T20:00:07.445Z,36.30
2018-07-08T20:02:39.450Z,36.30
2018-07-08T20:05:11.404Z,36.30
2018-07-08T20:07:43.335Z,36.20
2018-07-08T20:10:15.449Z,36.20
2018-07-08T20:12:47.367Z,36.00
2018-07-08T20:15:20.751Z,36.00
2018-07-08T20:17:52.930Z,36.00
2018-07-08T20:20:25.616Z,35.90
2018-07-08T20:22:57.265Z,36.00
2018-07-08T20:25:29.382Z,36.00
2018-07-08T20:28:01.272Z,36.10
2018-07-08T20:30:33.581Z,36.10
2018-07-08T20:33:05.544Z,36.00
2018-07-08T20:35:37.964Z,35.90
2018-07-08T20:38:09.839Z,35.90
2018-07-08T20:40:42.019Z,35.80
2018-07-08T20:43:13.907Z,35.70
2018-07-08T20:45:46.173Z,35.70
2018-07-08T20:50:49.124Z,35.40
2018-07-08T20:55:51.917Z,35.00
2018-07-08T20:58:23.590Z,35.10
2018-07-08T21:00:55.542Z,35.10
2018-07-08T21:03:27.730Z,35.10
2018-07-08T21:05:59.791Z,35.10
2018-07-08T21:08:31.970Z,35.10
2018-07-08T21:11:04.394Z,34.90
2018-07-08T21:13:36.288Z,34.90
2018-07-08T21:16:08.917Z,35.00
2018-07-08T21:18:40.810Z,35.00
2018-07-08T21:21:12.761Z,35.00
2018-07-08T21:23:44.544Z,35.00
2018-07-08T21:26:16.895Z,35.00
2018-07-08T21:28:48.936Z,34.90
2018-07-08T21:31:21.251Z,34.90
2018-07-08T21:33:53.204Z,34.90
2018-07-08T21:36:25.534Z,34.80
2018-07-08T21:38:57.280Z,34.80
2018-07-08T21:41:29.635Z,34.80
2018-07-08T21:44:01.510Z,34.80
2018-07-08T21:46:33.812Z,34.70
2018-07-08T21:49:05.735Z,34.60
2018-07-08T21:51:37.859Z,34.70
2018-07-08T21:56:41.019Z,34.60
2018-07-08T21:59:12.714Z,34.60
2018-07-08T22:02:03.358Z,34.60
2018-07-08T22:04:35.130Z,34.50
2018-07-08T22:07:11.943Z,34.50
2018-07-08T22:09:43.822Z,34.50
2018-07-08T22:12:15.876Z,34.50
2018-07-08T22:14:47.928Z,34.50
2018-07-08T22:17:21.015Z,34.50
2018-07-08T22:19:52.620Z,34.50
2018-07-08T22:24:55.442Z,34.40
2018-07-08T22:29:58.818Z,34.40
2018-07-08T22:32:31.258Z,34.50
2018-07-08T22:37:34.279Z,34.30
2018-07-08T22:40:06.266Z,34.20
2018-07-08T22:42:38.466Z,34.30
2018-07-08T22:45:10.837Z,34.20
2018-07-08T22:47:42.931Z,34.30
2018-07-08T22:50:14.635Z,34.20
2018-07-08T22:52:46.554Z,34.20
2018-07-08T22:55:18.266Z,34.30
2018-07-08T22:57:50.886Z,34.30
2018-07-08T23:00:32.515Z,34.30
2018-07-08T23:03:16.726Z,34.20
2018-07-08T23:05:48.382Z,34.10
2018-07-08T23:08:20.495Z,34.10
2018-07-08T23:10:52.407Z,34.10
2018-07-08T23:13:24.482Z,34.10
2018-07-08T23:15:56.368Z,34.10
2018-07-08T23:18:29.233Z,34.00
2018-07-08T23:21:01.027Z,34.00
2018-07-08T23:23:33.083Z,34.00
2018-07-08T23:26:04.843Z,33.90
2018-07-08T23:28:37.771Z,33.90
2018-07-08T23:31:10.227Z,33.80
2018-07-08T23:33:42.130Z,33.90
2018-07-08T23:36:14.064Z,33.90
2018-07-08T23:38:46.147Z,33.80
2018-07-08T23:41:17.744Z,33.80
2018-07-08T23:43:49.692Z,33.70
2018-07-08T23:46:21.676Z,33.70
2018-07-08T23:48:53.679Z,33.70
2018-07-08T23:51:25.666Z,33.70
2018-07-08T23:53:58.342Z,33.70
2018-07-08T23:59:02.067Z,33.60
